sensor_id;sensor_type;location;lat;lon;timestamp;P1;durP1;ratioP1;P2;durP2;ratioP2
20073;SDS011;10197;54.282;10.078;2023-02-28T00:01:04;8.75;;;6.30;;
20073;SDS011;10197;54.282;10.078;2023-02-28T00:03:30;8.38;;;6.43;;
20073;SDS011;10197;54.282;10.078;2023-02-28T00:06:03;9.50;;;6.05;;
20073;SDS011;10197;54.282;10.078;2023-02-28T00:08:33;8.98;;;5.57;;
20073;SDS011;10197;54.282;10.078;2023-02-28T00:11:02;8.93;;;5.68;;
20073;SDS011;10197;54.282;10.078;2023-02-28T00:13:30;7.25;;;5.38;;
20073;SDS011;10197;54.282;10.078;2023-02-28T00:16:00;7.70;;;5.55;;
20073;SDS011;10197;54.282;10.078;2023-02-28T00:18:27;7.75;;;5.30;;
20073;SDS011;10197;54.282;10.078;2023-02-28T00:20:54;6.72;;;5.40;;
20073;SDS011;10197;54.282;10.078;2023-02-28T00:23:21;6.55;;;5.22;;
20073;SDS011;10197;54.282;10.078;2023-02-28T00:25:48;7.03;;;4.85;;
20073;SDS011;10197;54.282;10.078;2023-02-28T00:28:17;8.55;;;5.45;;
20073;SDS011;10197;54.282;10.078;2023-02-28T00:30:44;7.25;;;5.30;;
20073;SDS011;10197;54.282;10.078;2023-02-28T00:33:10;7.75;;;5.20;;
20073;SDS011;10197;54.282;10.078;2023-02-28T00:35:37;9.85;;;5.25;;
20073;SDS011;10197;54.282;10.078;2023-02-28T00:38:04;7.57;;;5.53;;
20073;SDS011;10197;54.282;10.078;2023-02-28T00:40:34;7.68;;;4.70;;
20073;SDS011;10197;54.282;10.078;2023-02-28T00:43:01;9.63;;;5.28;;
20073;SDS011;10197;54.282;10.078;2023-02-28T00:45:29;5.80;;;5.07;;
20073;SDS011;10197;54.282;10.078;2023-02-28T00:47:56;7.93;;;5.45;;
20073;SDS011;10197;54.282;10.078;2023-02-28T00:50:23;8.55;;;5.18;;
20073;SDS011;10197;54.282;10.078;2023-02-28T00:52:50;9.00;;;4.95;;
20073;SDS011;10197;54.282;10.078;2023-02-28T00:55:17;7.03;;;5.18;;
20073;SDS011;10197;54.282;10.078;2023-02-28T00:57:44;7.28;;;4.80;;
20073;SDS011;10197;54.282;10.078;2023-02-28T01:00:12;6.25;;;5.00;;
20073;SDS011;10197;54.282;10.078;2023-02-28T01:02:41;9.23;;;5.75;;
20073;SDS011;10197;54.282;10.078;2023-02-28T01:05:08;6.45;;;4.47;;
20073;SDS011;10197;54.282;10.078;2023-02-28T01:07:35;7.70;;;5.10;;
20073;SDS011;10197;54.282;10.078;2023-02-28T01:10:02;6.85;;;5.13;;
20073;SDS011;10197;54.282;10.078;2023-02-28T01:12:29;12.85;;;6.00;;
20073;SDS011;10197;54.282;10.078;2023-02-28T01:14:56;10.00;;;6.20;;
20073;SDS011;10197;54.282;10.078;2023-02-28T01:17:23;8.63;;;5.70;;
20073;SDS011;10197;54.282;10.078;2023-02-28T01:19:54;9.13;;;5.20;;
20073;SDS011;10197;54.282;10.078;2023-02-28T01:22:24;11.25;;;6.28;;
20073;SDS011;10197;54.282;10.078;2023-02-28T01:24:51;8.30;;;6.03;;
20073;SDS011;10197;54.282;10.078;2023-02-28T01:27:18;8.55;;;5.47;;
20073;SDS011;10197;54.282;10.078;2023-02-28T01:29:45;7.03;;;5.63;;
20073;SDS011;10197;54.282;10.078;2023-02-28T01:32:12;8.80;;;6.60;;
20073;SDS011;10197;54.282;10.078;2023-02-28T01:34:39;12.65;;;6.22;;
20073;SDS011;10197;54.282;10.078;2023-02-28T01:37:07;7.88;;;5.65;;
20073;SDS011;10197;54.282;10.078;2023-02-28T01:39:35;9.38;;;5.65;;
20073;SDS011;10197;54.282;10.078;2023-02-28T01:42:02;9.00;;;5.47;;
20073;SDS011;10197;54.282;10.078;2023-02-28T01:47:24;8.30;;;5.75;;
20073;SDS011;10197;54.282;10.078;2023-02-28T01:49:52;8.35;;;5.68;;
20073;SDS011;10197;54.282;10.078;2023-02-28T01:52:21;8.63;;;5.57;;
20073;SDS011;10197;54.282;10.078;2023-02-28T01:54:53;9.38;;;5.70;;
20073;SDS011;10197;54.282;10.078;2023-02-28T01:57:23;9.15;;;5.55;;
20073;SDS011;10197;54.282;10.078;2023-02-28T01:59:54;8.32;;;5.38;;
20073;SDS011;10197;54.282;10.078;2023-02-28T02:02:23;7.90;;;5.47;;
20073;SDS011;10197;54.282;10.078;2023-02-28T02:04:51;7.63;;;5.63;;
20073;SDS011;10197;54.282;10.078;2023-02-28T02:07:22;9.20;;;4.95;;
20073;SDS011;10197;54.282;10.078;2023-02-28T02:09:50;8.13;;;5.38;;
20073;SDS011;10197;54.282;10.078;2023-02-28T02:12:20;6.53;;;4.97;;
20073;SDS011;10197;54.282;10.078;2023-02-28T02:14:57;8.88;;;5.10;;
20073;SDS011;10197;54.282;10.078;2023-02-28T02:17:29;7.63;;;4.85;;
20073;SDS011;10197;54.282;10.078;2023-02-28T02:25:55;9.05;;;5.15;;
20073;SDS011;10197;54.282;10.078;2023-02-28T02:31:18;6.80;;;5.03;;
20073;SDS011;10197;54.282;10.078;2023-02-28T02:34:08;7.80;;;4.75;;
20073;SDS011;10197;54.282;10.078;2023-02-28T02:36:45;8.50;;;4.85;;
20073;SDS011;10197;54.282;10.078;2023-02-28T02:39:16;6.95;;;5.13;;
20073;SDS011;10197;54.282;10.078;2023-02-28T02:41:46;7.97;;;5.60;;
20073;SDS011;10197;54.282;10.078;2023-02-28T02:44:18;6.93;;;5.18;;
20073;SDS011;10197;54.282;10.078;2023-02-28T02:46:48;8.68;;;5.00;;
20073;SDS011;10197;54.282;10.078;2023-02-28T02:49:21;8.38;;;5.10;;
20073;SDS011;10197;54.282;10.078;2023-02-28T02:51:48;9.30;;;5.47;;
20073;SDS011;10197;54.282;10.078;2023-02-28T02:54:17;8.35;;;5.70;;
20073;SDS011;10197;54.282;10.078;2023-02-28T02:56:46;7.00;;;5.05;;
20073;SDS011;10197;54.282;10.078;2023-02-28T02:59:16;7.45;;;4.90;;
20073;SDS011;10197;54.282;10.078;2023-02-28T03:01:47;6.63;;;5.18;;
20073;SDS011;10197;54.282;10.078;2023-02-28T03:04:16;7.32;;;5.00;;
20073;SDS011;10197;54.282;10.078;2023-02-28T03:06:47;7.93;;;5.22;;
20073;SDS011;10197;54.282;10.078;2023-02-28T03:09:14;7.78;;;5.03;;
20073;SDS011;10197;54.282;10.078;2023-02-28T03:11:41;7.45;;;5.28;;
20073;SDS011;10197;54.282;10.078;2023-02-28T03:14:18;7.68;;;4.90;;
20073;SDS011;10197;54.282;10.078;2023-02-28T03:17:00;7.80;;;4.75;;
20073;SDS011;10197;54.282;10.078;2023-02-28T03:19:38;6.10;;;4.93;;
20073;SDS011;10197;54.282;10.078;2023-02-28T03:22:19;8.65;;;5.30;;
20073;SDS011;10197;54.282;10.078;2023-02-28T03:24:56;8.35;;;5.10;;
20073;SDS011;10197;54.282;10.078;2023-02-28T03:27:29;7.35;;;5.10;;
20073;SDS011;10197;54.282;10.078;2023-02-28T03:29:58;7.85;;;5.22;;
20073;SDS011;10197;54.282;10.078;2023-02-28T03:32:31;7.57;;;5.78;;
20073;SDS011;10197;54.282;10.078;2023-02-28T03:35:00;8.05;;;5.63;;
20073;SDS011;10197;54.282;10.078;2023-02-28T03:37:32;6.43;;;4.68;;
20073;SDS011;10197;54.282;10.078;2023-02-28T03:40:02;8.35;;;5.07;;
20073;SDS011;10197;54.282;10.078;2023-02-28T03:42:34;8.32;;;5.07;;
20073;SDS011;10197;54.282;10.078;2023-02-28T03:45:03;7.97;;;4.78;;
20073;SDS011;10197;54.282;10.078;2023-02-28T03:47:33;7.15;;;4.93;;
20073;SDS011;10197;54.282;10.078;2023-02-28T03:50:05;6.40;;;4.75;;
20073;SDS011;10197;54.282;10.078;2023-02-28T03:52:36;8.50;;;5.15;;
20073;SDS011;10197;54.282;10.078;2023-02-28T03:55:06;6.40;;;5.13;;
20073;SDS011;10197;54.282;10.078;2023-02-28T03:57:37;7.60;;;5.55;;
20073;SDS011;10197;54.282;10.078;2023-02-28T04:00:06;8.40;;;5.35;;
20073;SDS011;10197;54.282;10.078;2023-02-28T04:02:37;7.57;;;5.30;;
20073;SDS011;10197;54.282;10.078;2023-02-28T04:05:05;6.85;;;4.97;;
20073;SDS011;10197;54.282;10.078;2023-02-28T04:07:32;6.78;;;4.90;;
20073;SDS011;10197;54.282;10.078;2023-02-28T04:10:01;7.20;;;5.07;;
20073;SDS011;10197;54.282;10.078;2023-02-28T04:12:29;8.18;;;4.70;;
20073;SDS011;10197;54.282;10.078;2023-02-28T04:14:56;7.47;;;5.15;;
20073;SDS011;10197;54.282;10.078;2023-02-28T04:17:23;7.28;;;5.50;;
20073;SDS011;10197;54.282;10.078;2023-02-28T04:19:49;6.97;;;5.03;;
20073;SDS011;10197;54.282;10.078;2023-02-28T04:22:16;8.52;;;5.53;;
20073;SDS011;10197;54.282;10.078;2023-02-28T04:24:43;7.43;;;5.53;;
20073;SDS011;10197;54.282;10.078;2023-02-28T04:27:11;12.00;;;6.43;;
20073;SDS011;10197;54.282;10.078;2023-02-28T04:29:40;14.68;;;7.57;;
20073;SDS011;10197;54.282;10.078;2023-02-28T04:32:10;10.80;;;6.78;;
20073;SDS011;10197;54.282;10.078;2023-02-28T04:34:37;11.93;;;6.60;;
20073;SDS011;10197;54.282;10.078;2023-02-28T04:37:07;25.85;;;13.07;;
20073;SDS011;10197;54.282;10.078;2023-02-28T04:39:34;22.65;;;11.90;;
20073;SDS011;10197;54.282;10.078;2023-02-28T04:42:02;23.33;;;11.57;;
20073;SDS011;10197;54.282;10.078;2023-02-28T04:44:30;19.35;;;11.00;;
20073;SDS011;10197;54.282;10.078;2023-02-28T04:46:57;19.02;;;10.07;;
20073;SDS011;10197;54.282;10.078;2023-02-28T04:49:24;14.18;;;8.63;;
20073;SDS011;10197;54.282;10.078;2023-02-28T04:51:52;15.35;;;9.23;;
20073;SDS011;10197;54.282;10.078;2023-02-28T04:54:19;15.45;;;8.80;;
20073;SDS011;10197;54.282;10.078;2023-02-28T04:56:46;14.98;;;9.07;;
20073;SDS011;10197;54.282;10.078;2023-02-28T04:59:14;14.55;;;8.18;;
20073;SDS011;10197;54.282;10.078;2023-02-28T05:01:45;14.13;;;8.63;;
20073;SDS011;10197;54.282;10.078;2023-02-28T05:04:12;11.45;;;8.30;;
20073;SDS011;10197;54.282;10.078;2023-02-28T05:06:39;12.93;;;7.75;;
20073;SDS011;10197;54.282;10.078;2023-02-28T05:09:06;11.20;;;7.72;;
20073;SDS011;10197;54.282;10.078;2023-02-28T05:11:34;14.15;;;8.27;;
20073;SDS011;10197;54.282;10.078;2023-02-28T05:14:01;11.35;;;7.97;;
20073;SDS011;10197;54.282;10.078;2023-02-28T05:16:29;19.13;;;10.57;;
20073;SDS011;10197;54.282;10.078;2023-02-28T05:18:57;15.85;;;10.20;;
20073;SDS011;10197;54.282;10.078;2023-02-28T05:21:27;15.93;;;9.02;;
20073;SDS011;10197;54.282;10.078;2023-02-28T05:23:55;12.70;;;8.60;;
20073;SDS011;10197;54.282;10.078;2023-02-28T05:26:22;15.80;;;8.70;;
20073;SDS011;10197;54.282;10.078;2023-02-28T05:28:50;11.65;;;7.22;;
20073;SDS011;10197;54.282;10.078;2023-02-28T05:31:17;12.55;;;6.72;;
20073;SDS011;10197;54.282;10.078;2023-02-28T05:33:44;16.00;;;8.88;;
20073;SDS011;10197;54.282;10.078;2023-02-28T05:36:14;12.07;;;8.10;;
20073;SDS011;10197;54.282;10.078;2023-02-28T05:38:41;11.73;;;7.85;;
20073;SDS011;10197;54.282;10.078;2023-02-28T05:41:09;14.00;;;8.85;;
20073;SDS011;10197;54.282;10.078;2023-02-28T05:43:37;13.80;;;8.80;;
20073;SDS011;10197;54.282;10.078;2023-02-28T05:46:04;11.55;;;7.80;;
20073;SDS011;10197;54.282;10.078;2023-02-28T05:48:32;12.98;;;7.88;;
20073;SDS011;10197;54.282;10.078;2023-02-28T05:50:59;11.10;;;7.10;;
20073;SDS011;10197;54.282;10.078;2023-02-28T05:53:27;13.20;;;8.30;;
20073;SDS011;10197;54.282;10.078;2023-02-28T05:55:54;13.48;;;7.93;;
20073;SDS011;10197;54.282;10.078;2023-02-28T05:58:21;10.20;;;7.38;;
20073;SDS011;10197;54.282;10.078;2023-02-28T06:00:48;10.13;;;6.93;;
20073;SDS011;10197;54.282;10.078;2023-02-28T06:03:15;9.90;;;7.07;;
20073;SDS011;10197;54.282;10.078;2023-02-28T06:05:42;8.82;;;6.75;;
20073;SDS011;10197;54.282;10.078;2023-02-28T06:08:10;8.45;;;6.32;;
20073;SDS011;10197;54.282;10.078;2023-02-28T06:10:39;8.98;;;6.90;;
20073;SDS011;10197;54.282;10.078;2023-02-28T06:13:06;8.70;;;6.28;;
20073;SDS011;10197;54.282;10.078;2023-02-28T06:15:33;8.80;;;5.65;;
20073;SDS011;10197;54.282;10.078;2023-02-28T06:17:59;8.38;;;6.15;;
20073;SDS011;10197;54.282;10.078;2023-02-28T06:20:27;12.93;;;8.70;;
20073;SDS011;10197;54.282;10.078;2023-02-28T06:22:55;15.50;;;9.75;;
20073;SDS011;10197;54.282;10.078;2023-02-28T06:25:23;13.60;;;9.40;;
20073;SDS011;10197;54.282;10.078;2023-02-28T06:27:53;10.23;;;7.45;;
20073;SDS011;10197;54.282;10.078;2023-02-28T06:30:20;9.15;;;6.80;;
20073;SDS011;10197;54.282;10.078;2023-02-28T06:32:50;10.15;;;7.22;;
20073;SDS011;10197;54.282;10.078;2023-02-28T06:35:17;7.82;;;6.35;;
20073;SDS011;10197;54.282;10.078;2023-02-28T06:37:44;8.48;;;6.40;;
20073;SDS011;10197;54.282;10.078;2023-02-28T06:40:12;9.52;;;6.57;;
20073;SDS011;10197;54.282;10.078;2023-02-28T06:42:41;7.60;;;6.50;;
20073;SDS011;10197;54.282;10.078;2023-02-28T06:45:10;8.80;;;6.50;;
20073;SDS011;10197;54.282;10.078;2023-02-28T06:47:38;10.15;;;6.97;;
20073;SDS011;10197;54.282;10.078;2023-02-28T06:50:05;9.85;;;7.05;;
20073;SDS011;10197;54.282;10.078;2023-02-28T06:52:33;8.70;;;6.53;;
20073;SDS011;10197;54.282;10.078;2023-02-28T06:55:03;8.40;;;7.00;;
20073;SDS011;10197;54.282;10.078;2023-02-28T06:57:30;11.02;;;7.00;;
20073;SDS011;10197;54.282;10.078;2023-02-28T06:59:58;10.10;;;7.00;;
20073;SDS011;10197;54.282;10.078;2023-02-28T07:02:26;11.75;;;7.10;;
20073;SDS011;10197;54.282;10.078;2023-02-28T07:04:53;10.27;;;7.15;;
20073;SDS011;10197;54.282;10.078;2023-02-28T07:07:21;14.48;;;8.98;;
20073;SDS011;10197;54.282;10.078;2023-02-28T07:09:48;9.95;;;7.75;;
20073;SDS011;10197;54.282;10.078;2023-02-28T07:12:15;11.40;;;7.72;;
20073;SDS011;10197;54.282;10.078;2023-02-28T07:14:43;10.45;;;8.15;;
20073;SDS011;10197;54.282;10.078;2023-02-28T07:17:10;11.82;;;7.90;;
20073;SDS011;10197;54.282;10.078;2023-02-28T07:19:39;12.60;;;8.75;;
20073;SDS011;10197;54.282;10.078;2023-02-28T07:22:06;11.25;;;8.90;;
20073;SDS011;10197;54.282;10.078;2023-02-28T07:24:34;17.38;;;10.50;;
20073;SDS011;10197;54.282;10.078;2023-02-28T07:27:00;26.23;;;13.95;;
20073;SDS011;10197;54.282;10.078;2023-02-28T07:29:28;25.70;;;13.63;;
20073;SDS011;10197;54.282;10.078;2023-02-28T07:31:56;20.85;;;11.85;;
20073;SDS011;10197;54.282;10.078;2023-02-28T07:34:23;23.17;;;12.73;;
20073;SDS011;10197;54.282;10.078;2023-02-28T07:36:53;21.23;;;12.18;;
20073;SDS011;10197;54.282;10.078;2023-02-28T07:39:20;13.40;;;9.85;;
20073;SDS011;10197;54.282;10.078;2023-02-28T07:41:49;13.85;;;9.30;;
20073;SDS011;10197;54.282;10.078;2023-02-28T07:44:15;13.23;;;8.80;;
20073;SDS011;10197;54.282;10.078;2023-02-28T07:46:43;13.75;;;8.93;;
20073;SDS011;10197;54.282;10.078;2023-02-28T07:49:10;11.18;;;8.00;;
20073;SDS011;10197;54.282;10.078;2023-02-28T07:51:36;10.32;;;7.68;;
20073;SDS011;10197;54.282;10.078;2023-02-28T07:54:05;11.02;;;7.15;;
20073;SDS011;10197;54.282;10.078;2023-02-28T07:56:31;9.73;;;7.78;;
20073;SDS011;10197;54.282;10.078;2023-02-28T07:58:58;8.80;;;7.25;;
20073;SDS011;10197;54.282;10.078;2023-02-28T08:01:26;11.13;;;8.20;;
20073;SDS011;10197;54.282;10.078;2023-02-28T08:03:53;9.50;;;7.30;;
20073;SDS011;10197;54.282;10.078;2023-02-28T08:06:22;8.60;;;7.38;;
20073;SDS011;10197;54.282;10.078;2023-02-28T08:08:50;12.75;;;8.80;;
20073;SDS011;10197;54.282;10.078;2023-02-28T08:11:18;12.27;;;8.55;;
20073;SDS011;10197;54.282;10.078;2023-02-28T08:13:45;10.07;;;7.82;;
20073;SDS011;10197;54.282;10.078;2023-02-28T08:16:13;12.40;;;8.38;;
20073;SDS011;10197;54.282;10.078;2023-02-28T08:18:46;12.27;;;8.40;;
20073;SDS011;10197;54.282;10.078;2023-02-28T08:21:13;13.77;;;8.90;;
20073;SDS011;10197;54.282;10.078;2023-02-28T08:23:40;9.15;;;7.30;;
20073;SDS011;10197;54.282;10.078;2023-02-28T08:26:07;12.57;;;7.78;;
20073;SDS011;10197;54.282;10.078;2023-02-28T08:28:35;9.35;;;7.68;;
20073;SDS011;10197;54.282;10.078;2023-02-28T08:31:06;11.52;;;7.47;;
20073;SDS011;10197;54.282;10.078;2023-02-28T08:33:33;12.05;;;8.63;;
20073;SDS011;10197;54.282;10.078;2023-02-28T08:36:00;13.73;;;8.30;;
20073;SDS011;10197;54.282;10.078;2023-02-28T08:38:27;10.18;;;7.13;;
20073;SDS011;10197;54.282;10.078;2023-02-28T08:40:56;10.98;;;7.72;;
20073;SDS011;10197;54.282;10.078;2023-02-28T08:43:24;14.63;;;6.90;;
20073;SDS011;10197;54.282;10.078;2023-02-28T08:45:52;13.52;;;7.20;;
20073;SDS011;10197;54.282;10.078;2023-02-28T08:48:19;9.35;;;6.28;;
20073;SDS011;10197;54.282;10.078;2023-02-28T08:50:54;13.57;;;6.80;;
20073;SDS011;10197;54.282;10.078;2023-02-28T08:53:21;8.70;;;6.18;;
20073;SDS011;10197;54.282;10.078;2023-02-28T08:55:55;10.10;;;6.05;;
20073;SDS011;10197;54.282;10.078;2023-02-28T08:58:22;10.18;;;6.40;;
20073;SDS011;10197;54.282;10.078;2023-02-28T09:00:50;9.60;;;6.18;;
20073;SDS011;10197;54.282;10.078;2023-02-28T09:03:18;10.07;;;6.15;;
20073;SDS011;10197;54.282;10.078;2023-02-28T09:05:51;8.70;;;5.68;;
20073;SDS011;10197;54.282;10.078;2023-02-28T09:08:18;6.88;;;5.85;;
20073;SDS011;10197;54.282;10.078;2023-02-28T09:10:46;9.63;;;6.47;;
20073;SDS011;10197;54.282;10.078;2023-02-28T09:13:13;9.55;;;5.93;;
20073;SDS011;10197;54.282;10.078;2023-02-28T09:15:40;10.60;;;6.40;;
20073;SDS011;10197;54.282;10.078;2023-02-28T09:18:07;8.82;;;6.03;;
20073;SDS011;10197;54.282;10.078;2023-02-28T09:20:35;10.70;;;6.72;;
20073;SDS011;10197;54.282;10.078;2023-02-28T09:23:03;9.15;;;5.90;;
20073;SDS011;10197;54.282;10.078;2023-02-28T09:25:30;11.25;;;6.68;;
20073;SDS011;10197;54.282;10.078;2023-02-28T09:27:57;10.55;;;5.63;;
20073;SDS011;10197;54.282;10.078;2023-02-28T09:30:24;11.20;;;5.82;;
20073;SDS011;10197;54.282;10.078;2023-02-28T09:32:51;10.20;;;5.03;;
20073;SDS011;10197;54.282;10.078;2023-02-28T09:35:19;9.77;;;5.35;;
20073;SDS011;10197;54.282;10.078;2023-02-28T09:37:48;10.15;;;4.65;;
20073;SDS011;10197;54.282;10.078;2023-02-28T09:40:15;8.00;;;4.00;;
20073;SDS011;10197;54.282;10.078;2023-02-28T09:42:46;7.60;;;4.72;;
20073;SDS011;10197;54.282;10.078;2023-02-28T09:45:15;6.07;;;4.10;;
20073;SDS011;10197;54.282;10.078;2023-02-28T09:47:48;6.25;;;4.00;;
20073;SDS011;10197;54.282;10.078;2023-02-28T09:50:17;6.63;;;4.10;;
20073;SDS011;10197;54.282;10.078;2023-02-28T09:52:51;5.93;;;3.90;;
20073;SDS011;10197;54.282;10.078;2023-02-28T09:55:22;5.53;;;3.63;;
20073;SDS011;10197;54.282;10.078;2023-02-28T09:57:54;4.60;;;3.00;;
20073;SDS011;10197;54.282;10.078;2023-02-28T10:00:22;5.18;;;3.30;;
20073;SDS011;10197;54.282;10.078;2023-02-28T10:02:57;4.93;;;2.70;;
20073;SDS011;10197;54.282;10.078;2023-02-28T10:05:33;7.20;;;2.80;;
20073;SDS011;10197;54.282;10.078;2023-02-28T10:08:05;4.60;;;2.58;;
20073;SDS011;10197;54.282;10.078;2023-02-28T10:10:37;3.72;;;2.40;;
20073;SDS011;10197;54.282;10.078;2023-02-28T10:13:14;5.28;;;2.67;;
20073;SDS011;10197;54.282;10.078;2023-02-28T10:15:44;1.95;;;1.85;;
20073;SDS011;10197;54.282;10.078;2023-02-28T10:18:14;5.20;;;2.15;;
20073;SDS011;10197;54.282;10.078;2023-02-28T10:20:44;3.35;;;2.00;;
20073;SDS011;10197;54.282;10.078;2023-02-28T10:23:14;3.42;;;2.50;;
20073;SDS011;10197;54.282;10.078;2023-02-28T10:25:45;9.00;;;5.03;;
20073;SDS011;10197;54.282;10.078;2023-02-28T10:28:15;6.28;;;2.97;;
20073;SDS011;10197;54.282;10.078;2023-02-28T10:30:43;4.45;;;2.92;;
20073;SDS011;10197;54.282;10.078;2023-02-28T10:33:19;5.63;;;3.53;;
20073;SDS011;10197;54.282;10.078;2023-02-28T10:35:51;5.38;;;3.30;;
20073;SDS011;10197;54.282;10.078;2023-02-28T10:38:21;4.68;;;2.42;;
20073;SDS011;10197;54.282;10.078;2023-02-28T10:40:49;3.65;;;2.47;;
20073;SDS011;10197;54.282;10.078;2023-02-28T10:43:18;4.88;;;3.03;;
20073;SDS011;10197;54.282;10.078;2023-02-28T10:45:57;5.35;;;2.70;;
20073;SDS011;10197;54.282;10.078;2023-02-28T10:48:27;3.58;;;2.20;;
20073;SDS011;10197;54.282;10.078;2023-02-28T10:51:00;3.80;;;2.00;;
20073;SDS011;10197;54.282;10.078;2023-02-28T10:53:35;3.35;;;2.10;;
20073;SDS011;10197;54.282;10.078;2023-02-28T10:56:05;3.03;;;2.05;;
20073;SDS011;10197;54.282;10.078;2023-02-28T10:58:46;2.90;;;2.35;;
20073;SDS011;10197;54.282;10.078;2023-02-28T11:01:15;3.92;;;3.10;;
20073;SDS011;10197;54.282;10.078;2023-02-28T11:03:44;2.70;;;2.13;;
20073;SDS011;10197;54.282;10.078;2023-02-28T11:06:13;3.30;;;2.20;;
20073;SDS011;10197;54.282;10.078;2023-02-28T11:08:45;3.58;;;2.30;;
20073;SDS011;10197;54.282;10.078;2023-02-28T11:11:13;2.33;;;2.10;;
20073;SDS011;10197;54.282;10.078;2023-02-28T11:13:42;2.50;;;2.22;;
20073;SDS011;10197;54.282;10.078;2023-02-28T11:16:11;3.95;;;2.75;;
20073;SDS011;10197;54.282;10.078;2023-02-28T11:18:40;4.30;;;2.80;;
20073;SDS011;10197;54.282;10.078;2023-02-28T11:21:10;4.55;;;2.75;;
20073;SDS011;10197;54.282;10.078;2023-02-28T11:23:42;3.70;;;2.70;;
20073;SDS011;10197;54.282;10.078;2023-02-28T11:26:11;4.00;;;2.72;;
20073;SDS011;10197;54.282;10.078;2023-02-28T11:28:39;4.97;;;2.50;;
20073;SDS011;10197;54.282;10.078;2023-02-28T11:31:15;4.80;;;2.60;;
20073;SDS011;10197;54.282;10.078;2023-02-28T11:33:45;4.03;;;2.38;;
20073;SDS011;10197;54.282;10.078;2023-02-28T11:36:16;3.47;;;2.60;;
20073;SDS011;10197;54.282;10.078;2023-02-28T11:38:47;4.85;;;3.00;;
20073;SDS011;10197;54.282;10.078;2023-02-28T11:41:22;2.90;;;2.60;;
20073;SDS011;10197;54.282;10.078;2023-02-28T11:44:11;2.85;;;2.22;;
20073;SDS011;10197;54.282;10.078;2023-02-28T11:46:50;3.10;;;2.42;;
20073;SDS011;10197;54.282;10.078;2023-02-28T11:49:26;5.22;;;2.63;;
20073;SDS011;10197;54.282;10.078;2023-02-28T11:51:58;2.88;;;2.17;;
20073;SDS011;10197;54.282;10.078;2023-02-28T11:54:32;2.42;;;2.22;;
20073;SDS011;10197;54.282;10.078;2023-02-28T11:57:19;4.00;;;2.70;;
20073;SDS011;10197;54.282;10.078;2023-02-28T11:59:56;2.97;;;2.10;;
20073;SDS011;10197;54.282;10.078;2023-02-28T12:02:28;3.05;;;2.50;;
20073;SDS011;10197;54.282;10.078;2023-02-28T12:05:10;2.35;;;2.13;;
20073;SDS011;10197;54.282;10.078;2023-02-28T12:07:47;2.15;;;1.95;;
20073;SDS011;10197;54.282;10.078;2023-02-28T12:10:21;3.83;;;2.33;;
20073;SDS011;10197;54.282;10.078;2023-02-28T12:12:53;3.58;;;2.88;;
20073;SDS011;10197;54.282;10.078;2023-02-28T12:21:18;3.40;;;2.10;;
20073;SDS011;10197;54.282;10.078;2023-02-28T12:23:52;2.47;;;2.10;;
20073;SDS011;10197;54.282;10.078;2023-02-28T12:26:31;2.28;;;2.08;;
20073;SDS011;10197;54.282;10.078;2023-02-28T12:29:07;4.20;;;2.38;;
20073;SDS011;10197;54.282;10.078;2023-02-28T12:31:42;3.45;;;2.20;;
20073;SDS011;10197;54.282;10.078;2023-02-28T12:34:13;3.72;;;2.72;;
20073;SDS011;10197;54.282;10.078;2023-02-28T12:36:44;2.58;;;2.03;;
20073;SDS011;10197;54.282;10.078;2023-02-28T12:39:13;3.15;;;2.10;;
20073;SDS011;10197;54.282;10.078;2023-02-28T12:41:45;1.98;;;1.83;;
20073;SDS011;10197;54.282;10.078;2023-02-28T12:44:17;2.22;;;2.03;;
20073;SDS011;10197;54.282;10.078;2023-02-28T12:46:46;3.53;;;2.50;;
20073;SDS011;10197;54.282;10.078;2023-02-28T12:49:16;2.83;;;2.47;;
20073;SDS011;10197;54.282;10.078;2023-02-28T12:51:45;5.22;;;2.40;;
20073;SDS011;10197;54.282;10.078;2023-02-28T12:54:14;2.78;;;2.40;;
20073;SDS011;10197;54.282;10.078;2023-02-28T12:56:48;6.65;;;2.58;;
20073;SDS011;10197;54.282;10.078;2023-02-28T12:59:21;2.75;;;2.20;;
20073;SDS011;10197;54.282;10.078;2023-02-28T13:02:02;2.50;;;2.13;;
20073;SDS011;10197;54.282;10.078;2023-02-28T13:04:54;2.50;;;2.15;;
20073;SDS011;10197;54.282;10.078;2023-02-28T13:10:38;5.20;;;3.30;;
20073;SDS011;10197;54.282;10.078;2023-02-28T13:13:11;3.50;;;2.83;;
20073;SDS011;10197;54.282;10.078;2023-02-28T13:15:56;2.67;;;2.10;;
20073;SDS011;10197;54.282;10.078;2023-02-28T13:18:29;4.55;;;2.50;;
20073;SDS011;10197;54.282;10.078;2023-02-28T13:21:03;6.95;;;2.60;;
20073;SDS011;10197;54.282;10.078;2023-02-28T13:23:41;5.07;;;2.78;;
20073;SDS011;10197;54.282;10.078;2023-02-28T13:29:38;2.63;;;2.15;;
20073;SDS011;10197;54.282;10.078;2023-02-28T13:38:21;3.05;;;2.28;;
20073;SDS011;10197;54.282;10.078;2023-02-28T13:40:51;3.35;;;2.20;;
20073;SDS011;10197;54.282;10.078;2023-02-28T13:43:18;2.65;;;2.30;;
20073;SDS011;10197;54.282;10.078;2023-02-28T13:46:06;3.63;;;2.22;;
20073;SDS011;10197;54.282;10.078;2023-02-28T13:48:36;6.20;;;2.47;;
20073;SDS011;10197;54.282;10.078;2023-02-28T13:54:14;2.92;;;2.30;;
20073;SDS011;10197;54.282;10.078;2023-02-28T13:56:49;3.00;;;2.08;;
20073;SDS011;10197;54.282;10.078;2023-02-28T13:59:23;2.65;;;1.90;;
20073;SDS011;10197;54.282;10.078;2023-02-28T14:02:03;4.03;;;2.10;;
20073;SDS011;10197;54.282;10.078;2023-02-28T14:04:57;3.20;;;2.15;;
20073;SDS011;10197;54.282;10.078;2023-02-28T14:07:27;2.78;;;2.28;;
20073;SDS011;10197;54.282;10.078;2023-02-28T14:09:59;4.13;;;2.17;;
20073;SDS011;10197;54.282;10.078;2023-02-28T14:15:25;2.20;;;2.00;;
20073;SDS011;10197;54.282;10.078;2023-02-28T14:18:16;2.95;;;2.25;;
20073;SDS011;10197;54.282;10.078;2023-02-28T14:20:46;2.58;;;2.10;;
20073;SDS011;10197;54.282;10.078;2023-02-28T14:23:16;2.63;;;2.05;;
20073;SDS011;10197;54.282;10.078;2023-02-28T14:25:52;2.47;;;2.00;;
20073;SDS011;10197;54.282;10.078;2023-02-28T14:28:24;3.65;;;2.25;;
20073;SDS011;10197;54.282;10.078;2023-02-28T14:31:00;2.60;;;1.80;;
20073;SDS011;10197;54.282;10.078;2023-02-28T14:33:46;3.40;;;2.38;;
20073;SDS011;10197;54.282;10.078;2023-02-28T14:36:24;3.97;;;2.15;;
20073;SDS011;10197;54.282;10.078;2023-02-28T14:38:55;3.70;;;2.10;;
20073;SDS011;10197;54.282;10.078;2023-02-28T14:41:23;2.33;;;2.10;;
20073;SDS011;10197;54.282;10.078;2023-02-28T14:43:52;2.22;;;2.00;;
20073;SDS011;10197;54.282;10.078;2023-02-28T14:46:22;2.40;;;2.20;;
20073;SDS011;10197;54.282;10.078;2023-02-28T14:48:52;4.18;;;2.15;;
20073;SDS011;10197;54.282;10.078;2023-02-28T14:51:19;2.97;;;2.20;;
20073;SDS011;10197;54.282;10.078;2023-02-28T14:53:48;4.25;;;2.13;;
20073;SDS011;10197;54.282;10.078;2023-02-28T14:56:24;2.55;;;1.67;;
20073;SDS011;10197;54.282;10.078;2023-02-28T14:58:55;3.10;;;2.03;;
20073;SDS011;10197;54.282;10.078;2023-02-28T15:01:23;2.30;;;2.10;;
20073;SDS011;10197;54.282;10.078;2023-02-28T15:03:59;3.95;;;2.17;;
20073;SDS011;10197;54.282;10.078;2023-02-28T15:06:28;3.35;;;2.00;;
20073;SDS011;10197;54.282;10.078;2023-02-28T15:09:09;3.20;;;2.03;;
20073;SDS011;10197;54.282;10.078;2023-02-28T15:11:38;2.80;;;1.92;;
20073;SDS011;10197;54.282;10.078;2023-02-28T15:14:05;3.70;;;2.70;;
20073;SDS011;10197;54.282;10.078;2023-02-28T15:16:32;2.40;;;2.20;;
20073;SDS011;10197;54.282;10.078;2023-02-28T15:19:03;3.80;;;2.47;;
20073;SDS011;10197;54.282;10.078;2023-02-28T15:21:32;2.85;;;1.90;;
20073;SDS011;10197;54.282;10.078;2023-02-28T15:24:00;3.28;;;2.00;;